Gao, Mali
Current Conditions -  °F | °C
As of 12:00 PM on Saturday 20 Dec 2014 (Local Time) from DRRN Reporting Station
Clear Clear  
Wind Chill: 88°   Ceiling: Unl
Heat Index: 88°   Visibility: 6mi
Dew Point: 19°   Wind: 10mph
Humidity: 8%   Direction: 50°NE
Pressure: 29.97"   Gusts: NA
Location:  16.27°N, 0.05°W
Report Text: DRRN 201200Z 05009KT 020V090 CAVOK 31/M07 Q1015 NOSIG
Loading
Personal Weather Stations






























Interactive Weather Map New forecast layout! Learn more

10-Day Weather Forecast

Advertisements
Track Severe Weather on mobile